Oakwood, Texas
Current Conditions -  °F | °C
As of 12:55 PM on Wednesday 26 Nov 2014 (Local Time) from KPSN Reporting Station
Clear Clear  
Wind Chill: 65°   Ceiling: Unl
Heat Index: 65°   Visibility: 10mi
Dew Point: 32°   Wind: 10mph
Humidity: 29%   Direction: 250°WSW
Pressure: 30.16"   Gusts: 16mph
Location:  31.58°N, 95.85°W
Report Text: KPSN 261855Z AUTO 25009G14KT 10SM CLR 18/00 A3016 RMK AO2 T01821001
Loading
Personal Weather Stations






























Interactive Weather Map New forecast layout! Learn more

10-Day Weather Forecast

Advertisements
Track Severe Weather on mobile